createdAt,value
2018-09-19T00:01:17.061Z,59.87
2018-09-19T00:03:44.504Z,60.01
2018-09-19T00:06:11.903Z,60.05
2018-09-19T00:08:39.337Z,60.06
2018-09-19T00:11:06.772Z,60.07
2018-09-19T00:13:34.238Z,60.06
2018-09-19T00:16:02.364Z,59.77
2018-09-19T00:18:29.821Z,59.74
2018-09-19T00:20:57.330Z,59.60
2018-09-19T00:23:24.796Z,59.52
2018-09-19T00:25:52.248Z,59.33
2018-09-19T00:28:19.707Z,59.46
2018-09-19T00:30:47.161Z,59.45
2018-09-19T00:33:14.612Z,59.26
2018-09-19T00:35:42.049Z,59.20
2018-09-19T00:38:09.475Z,59.60
2018-09-19T00:40:36.973Z,60.06
2018-09-19T00:43:04.594Z,60.38
2018-09-19T00:45:32.065Z,60.64
2018-09-19T00:47:59.492Z,60.75
2018-09-19T00:50:26.963Z,60.61
2018-09-19T00:52:54.409Z,60.60
2018-09-19T00:55:21.822Z,60.36
2018-09-19T00:57:49.216Z,60.49
2018-09-19T01:00:17.067Z,60.73
2018-09-19T01:02:44.538Z,60.69
2018-09-19T01:05:11.999Z,60.80
2018-09-19T01:07:39.469Z,60.91
2018-09-19T01:10:06.922Z,60.40
2018-09-19T01:12:34.347Z,59.99
2018-09-19T01:15:01.786Z,60.07
2018-09-19T01:17:29.242Z,60.44
2018-09-19T01:19:56.706Z,60.58
2018-09-19T01:22:24.106Z,60.59
2018-09-19T01:24:51.631Z,60.63
2018-09-19T01:27:19.144Z,60.72
2018-09-19T01:29:46.616Z,60.70
2018-09-19T01:32:14.095Z,60.71
2018-09-19T01:34:41.556Z,60.73
2018-09-19T01:37:08.950Z,60.73
2018-09-19T01:39:36.685Z,60.33
2018-09-19T01:42:04.177Z,60.08
2018-09-19T01:44:31.602Z,59.82
2018-09-19T01:46:59.051Z,60.20
2018-09-19T01:49:26.566Z,60.46
2018-09-19T01:51:54.840Z,60.85
2018-09-19T01:54:22.265Z,61.42
2018-09-19T01:56:49.712Z,61.62
2018-09-19T01:59:17.115Z,61.97
2018-09-19T02:01:44.520Z,62.01
2018-09-19T02:04:11.963Z,61.88
2018-09-19T02:06:39.495Z,61.68
2018-09-19T02:09:06.972Z,61.38
2018-09-19T02:11:34.432Z,61.36
2018-09-19T02:14:01.832Z,61.17
2018-09-19T02:16:29.352Z,61.07
2018-09-19T02:18:56.772Z,61.07
2018-09-19T02:21:24.241Z,60.89
2018-09-19T02:23:51.715Z,60.96
2018-09-19T02:26:19.249Z,61.09
2018-09-19T02:28:46.708Z,61.22
2018-09-19T02:31:14.187Z,61.34
2018-09-19T02:33:41.586Z,61.24
2018-09-19T02:36:09.048Z,61.29
2018-09-19T02:38:36.508Z,61.23
2018-09-19T02:41:03.953Z,61.17
2018-09-19T02:43:31.459Z,61.31
2018-09-19T02:45:58.943Z,61.72
2018-09-19T02:48:26.385Z,61.86
2018-09-19T02:50:53.903Z,61.87
2018-09-19T02:53:21.389Z,61.74
2018-09-19T02:55:48.830Z,61.32
2018-09-19T02:58:16.279Z,61.35
2018-09-19T03:00:43.722Z,61.65
2018-09-19T03:03:11.120Z,61.83
2018-09-19T03:05:38.907Z,62.14
2018-09-19T03:08:06.373Z,61.97
2018-09-19T03:10:33.894Z,62.00
2018-09-19T03:13:01.389Z,61.68
2018-09-19T03:15:28.802Z,61.69
2018-09-19T03:17:56.270Z,61.65
2018-09-19T03:20:23.684Z,61.44
2018-09-19T03:22:51.146Z,61.20
2018-09-19T03:25:19.261Z,61.39
2018-09-19T03:27:46.732Z,61.40
2018-09-19T03:30:14.146Z,61.19
2018-09-19T03:32:41.621Z,60.99
2018-09-19T03:35:09.872Z,60.95
2018-09-19T03:37:37.497Z,61.26
2018-09-19T03:40:04.964Z,61.41
2018-09-19T03:42:32.408Z,61.10
2018-09-19T03:47:33.562Z,61.31
2018-09-19T03:50:01.064Z,60.94
2018-09-19T03:52:28.476Z,61.06
2018-09-19T03:54:55.910Z,61.16
2018-09-19T03:57:23.432Z,61.02
2018-09-19T03:59:50.866Z,60.93
2018-09-19T04:02:18.361Z,60.58
2018-09-19T04:04:45.810Z,60.99
2018-09-19T04:07:13.236Z,61.79
2018-09-19T04:09:40.701Z,62.21
2018-09-19T04:12:08.158Z,62.22
2018-09-19T04:14:35.722Z,62.22
2018-09-19T04:17:03.201Z,62.05
2018-09-19T04:19:30.653Z,61.73
2018-09-19T04:21:58.143Z,61.66
2018-09-19T04:24:25.642Z,61.67
2018-09-19T04:26:53.108Z,61.85
2018-09-19T04:29:20.558Z,62.29
2018-09-19T04:31:48.055Z,62.14
2018-09-19T04:34:15.462Z,62.08
2018-09-19T04:36:42.889Z,62.06
2018-09-19T04:39:10.340Z,62.17
2018-09-19T04:44:11.710Z,62.57
2018-09-19T04:46:39.215Z,62.51
2018-09-19T04:49:06.785Z,62.72
2018-09-19T04:51:34.377Z,63.05
2018-09-19T04:54:01.802Z,63.12
2018-09-19T04:56:29.384Z,62.87
2018-09-19T04:58:56.857Z,62.96
2018-09-19T05:01:24.303Z,63.00
2018-09-19T05:03:51.768Z,62.94
2018-09-19T05:06:19.323Z,62.60
2018-09-19T05:08:46.732Z,62.50
2018-09-19T05:11:14.275Z,62.51
2018-09-19T05:13:42.154Z,62.46
2018-09-19T05:16:09.628Z,62.46
2018-09-19T05:18:37.070Z,62.31
2018-09-19T05:21:04.671Z,62.58
2018-09-19T05:23:32.102Z,62.80
2018-09-19T05:25:59.531Z,63.00
2018-09-19T05:28:27.056Z,63.39
2018-09-19T05:30:54.514Z,63.00
2018-09-19T05:33:23.154Z,62.71
2018-09-19T05:35:50.610Z,62.42
2018-09-19T05:38:18.162Z,62.54
2018-09-19T05:40:45.768Z,62.47
2018-09-19T05:43:14.183Z,62.07
2018-09-19T05:45:41.611Z,61.16
2018-09-19T05:48:09.056Z,60.69
2018-09-19T05:50:36.512Z,60.38
2018-09-19T05:53:04.065Z,60.55
2018-09-19T05:55:31.667Z,60.60
2018-09-19T05:57:59.983Z,60.85
2018-09-19T06:00:27.465Z,61.17
2018-09-19T06:02:54.983Z,61.34
2018-09-19T06:05:22.424Z,61.11
2018-09-19T06:07:49.931Z,61.04
2018-09-19T06:10:17.487Z,61.09
2018-09-19T06:12:44.937Z,60.95
2018-09-19T06:15:12.401Z,61.14
2018-09-19T06:17:39.867Z,60.98
2018-09-19T06:20:07.500Z,60.78
2018-09-19T06:22:34.917Z,60.60
2018-09-19T06:25:02.321Z,60.23
2018-09-19T06:27:30.160Z,60.18
2018-09-19T06:29:57.570Z,60.20
2018-09-19T06:32:25.866Z,59.95
2018-09-19T06:34:53.389Z,59.93
2018-09-19T06:37:20.885Z,59.59
2018-09-19T06:39:48.475Z,59.30
2018-09-19T06:42:15.902Z,58.94
2018-09-19T06:44:43.456Z,58.80
2018-09-19T06:47:10.915Z,58.56
2018-09-19T06:49:38.375Z,58.64
2018-09-19T06:52:05.901Z,58.52
2018-09-19T06:54:33.348Z,58.16
2018-09-19T06:57:00.886Z,57.74
2018-09-19T06:59:28.447Z,56.60
2018-09-19T07:01:55.864Z,54.95
2018-09-19T07:04:23.327Z,54.77
2018-09-19T07:06:51.153Z,55.50
2018-09-19T07:09:18.591Z,56.28
2018-09-19T07:11:46.155Z,56.56
2018-09-19T07:14:13.762Z,57.01
2018-09-19T07:16:41.313Z,57.20
2018-09-19T07:19:08.945Z,57.53
2018-09-19T07:21:36.472Z,57.67
2018-09-19T07:24:05.729Z,57.68
2018-09-19T07:26:33.244Z,57.69
2018-09-19T07:29:00.691Z,57.27
2018-09-19T07:31:28.777Z,54.17
2018-09-19T07:33:56.249Z,49.80
2018-09-19T07:36:23.694Z,45.37
2018-09-19T07:38:50.677Z,43.50
2018-09-19T07:41:17.742Z,42.84
2018-09-19T07:43:44.728Z,42.41
2018-09-19T07:46:11.801Z,43.87
2018-09-19T07:48:38.776Z,45.55
2018-09-19T07:51:05.821Z,46.08
2018-09-19T07:53:33.931Z,44.93
2018-09-19T07:56:01.917Z,43.41
2018-09-19T07:58:28.945Z,41.88
2018-09-19T08:00:56.150Z,39.89
2018-09-19T08:03:23.028Z,38.02
2018-09-19T08:05:50.043Z,36.89
2018-09-19T08:08:17.128Z,36.73
2018-09-19T08:10:44.377Z,36.68
2018-09-19T08:13:11.396Z,36.64
2018-09-19T08:15:38.431Z,36.46
2018-09-19T08:18:05.872Z,36.45
2018-09-19T08:20:33.119Z,35.31
2018-09-19T08:23:00.585Z,34.41
2018-09-19T08:25:28.019Z,33.70
2018-09-19T08:27:55.023Z,33.40
2018-09-19T08:30:22.502Z,33.33
2018-09-19T08:32:50.038Z,33.32
2018-09-19T08:35:17.058Z,32.95
2018-09-19T08:37:44.560Z,32.67
2018-09-19T08:40:11.975Z,32.49
2018-09-19T08:42:39.500Z,32.59
2018-09-19T08:45:07.061Z,32.62
2018-09-19T08:47:34.670Z,33.10
2018-09-19T08:50:02.247Z,33.92
2018-09-19T08:52:29.865Z,34.14
2018-09-19T08:54:57.310Z,34.81
2018-09-19T08:57:24.832Z,35.67
2018-09-19T08:59:52.680Z,35.03
2018-09-19T09:02:20.192Z,34.47
2018-09-19T09:04:47.606Z,34.23
2018-09-19T09:07:15.154Z,34.11
2018-09-19T09:09:42.623Z,34.78
2018-09-19T09:12:10.160Z,36.07
2018-09-19T09:14:37.588Z,37.90
2018-09-19T09:17:05.138Z,38.06
2018-09-19T09:19:32.716Z,38.65
2018-09-19T09:22:00.284Z,38.76
2018-09-19T09:24:27.757Z,39.75
2018-09-19T09:26:55.317Z,40.48
2018-09-19T09:29:22.687Z,40.38
2018-09-19T09:31:50.194Z,40.38
2018-09-19T09:34:17.683Z,40.68
2018-09-19T09:36:45.160Z,41.08
2018-09-19T09:39:12.784Z,41.38
2018-09-19T09:41:40.552Z,41.83
2018-09-19T09:44:08.025Z,42.15
2018-09-19T09:46:35.446Z,42.76
2018-09-19T09:49:02.947Z,42.32
2018-09-19T09:51:30.458Z,41.79
2018-09-19T09:53:57.948Z,42.16
2018-09-19T09:56:25.407Z,41.47
2018-09-19T09:58:53.022Z,41.26
2018-09-19T10:01:20.433Z,40.20
2018-09-19T10:03:47.904Z,40.08
2018-09-19T10:06:15.449Z,40.69
2018-09-19T10:08:42.868Z,41.47
2018-09-19T10:11:10.320Z,41.10
2018-09-19T10:13:37.834Z,41.36
2018-09-19T10:16:04.915Z,41.02
2018-09-19T10:18:32.446Z,40.36
2018-09-19T10:20:59.863Z,39.65
2018-09-19T10:23:27.368Z,39.51
2018-09-19T10:25:54.988Z,39.11
2018-09-19T10:28:22.494Z,39.18
2018-09-19T10:30:50.077Z,39.27
2018-09-19T10:33:17.628Z,38.85
2018-09-19T10:35:45.037Z,38.30
2018-09-19T10:38:12.531Z,37.93
2018-09-19T10:40:40.099Z,38.00
2018-09-19T10:43:07.559Z,38.09
2018-09-19T10:45:35.002Z,37.51
2018-09-19T10:48:02.461Z,37.07
2018-09-19T10:50:30.025Z,37.52
2018-09-19T10:52:57.528Z,37.61
2018-09-19T10:55:25.182Z,37.77
2018-09-19T10:57:52.614Z,37.34
2018-09-19T11:00:20.085Z,37.16
2018-09-19T11:02:47.568Z,36.66
2018-09-19T11:05:15.129Z,36.50
2018-09-19T11:07:42.614Z,36.27
2018-09-19T11:10:10.226Z,35.91
2018-09-19T11:12:37.850Z,35.97
2018-09-19T11:15:05.644Z,36.22
2018-09-19T11:17:33.334Z,36.01
2018-09-19T11:20:00.807Z,35.62
2018-09-19T11:22:29.255Z,35.26
2018-09-19T11:24:56.702Z,34.88
2018-09-19T11:27:24.164Z,34.71
2018-09-19T11:29:51.634Z,35.08
2018-09-19T11:32:19.106Z,35.52
2018-09-19T11:34:46.696Z,35.81
2018-09-19T11:37:14.131Z,35.91
2018-09-19T11:39:41.637Z,35.63
2018-09-19T11:42:09.170Z,35.81
2018-09-19T11:44:36.713Z,35.59
2018-09-19T11:47:04.193Z,35.49
2018-09-19T11:49:31.894Z,35.26
2018-09-19T11:51:59.356Z,34.93
2018-09-19T11:54:27.586Z,35.17
2018-09-19T11:56:55.566Z,35.34
2018-09-19T11:59:23.239Z,35.16
2018-09-19T12:01:50.783Z,35.28
2018-09-19T12:04:18.305Z,34.73
2018-09-19T12:06:47.982Z,34.50
2018-09-19T12:09:15.462Z,35.01
2018-09-19T12:11:43.040Z,35.06
2018-09-19T12:14:10.748Z,34.53
2018-09-19T12:16:38.270Z,34.04
2018-09-19T12:19:05.674Z,33.83
2018-09-19T12:21:33.214Z,33.41
2018-09-19T12:24:00.788Z,32.67
2018-09-19T12:26:28.263Z,32.32
2018-09-19T12:28:56.046Z,33.02
2018-09-19T12:31:23.580Z,33.21
2018-09-19T12:33:51.175Z,33.67
2018-09-19T12:36:18.693Z,33.19
2018-09-19T12:38:47.215Z,32.66
2018-09-19T12:41:14.626Z,33.13
2018-09-19T12:43:42.168Z,33.06
2018-09-19T12:46:10.291Z,33.21
2018-09-19T12:48:37.790Z,33.40
2018-09-19T12:51:05.264Z,33.07
2018-09-19T12:53:32.737Z,33.10
2018-09-19T12:56:01.534Z,33.20
2018-09-19T12:58:28.931Z,33.30
2018-09-19T13:00:56.583Z,33.97
2018-09-19T13:03:24.060Z,33.86
2018-09-19T13:05:51.568Z,33.57
2018-09-19T13:08:19.115Z,33.12
2018-09-19T13:10:46.711Z,32.85
2018-09-19T13:13:14.254Z,32.99
2018-09-19T13:15:42.572Z,33.11
2018-09-19T13:18:09.989Z,33.25
2018-09-19T13:20:37.509Z,34.08
2018-09-19T13:23:04.917Z,34.08
2018-09-19T13:25:32.458Z,33.66
2018-09-19T13:27:59.892Z,33.93
2018-09-19T13:30:27.387Z,34.78
2018-09-19T13:32:54.924Z,34.24
2018-09-19T13:35:22.423Z,34.53
2018-09-19T13:37:49.880Z,35.35
2018-09-19T13:40:17.506Z,35.84
2018-09-19T13:42:46.108Z,36.03
2018-09-19T13:45:13.657Z,35.87
2018-09-19T13:47:41.516Z,35.96
2018-09-19T13:50:08.987Z,37.31
2018-09-19T13:52:36.576Z,38.90
2018-09-19T13:55:04.038Z,39.65
2018-09-19T13:57:31.739Z,39.97
2018-09-19T13:59:59.572Z,40.90
2018-09-19T14:02:27.182Z,41.32
2018-09-19T14:04:54.772Z,41.59
2018-09-19T14:07:22.341Z,41.50
2018-09-19T14:09:49.404Z,41.36
2018-09-19T14:12:16.541Z,41.49
2018-09-19T14:14:55.005Z,41.68
2018-09-19T14:17:22.012Z,41.49
2018-09-19T14:19:49.535Z,41.45
2018-09-19T14:22:17.078Z,41.53
2018-09-19T14:24:44.724Z,41.44
2018-09-19T14:27:12.191Z,40.88
2018-09-19T14:29:39.674Z,38.96
2018-09-19T14:32:07.174Z,37.34
2018-09-19T14:34:34.753Z,36.90
2018-09-19T14:37:02.336Z,37.50
2018-09-19T14:39:29.780Z,38.21
2018-09-19T14:41:57.223Z,39.17
2018-09-19T14:44:24.791Z,40.59
2018-09-19T14:46:52.315Z,40.56
2018-09-19T14:49:19.792Z,40.35
2018-09-19T14:51:47.274Z,39.90
2018-09-19T14:54:14.726Z,39.24
2018-09-19T14:56:42.212Z,38.41
2018-09-19T14:59:09.689Z,38.03
2018-09-19T15:01:37.184Z,36.73
2018-09-19T15:04:04.812Z,35.32
2018-09-19T15:06:32.295Z,33.99
2018-09-19T15:09:00.346Z,34.27
2018-09-19T15:11:27.849Z,34.64
2018-09-19T15:13:55.297Z,34.43
2018-09-19T15:16:23.412Z,34.01
2018-09-19T15:18:50.906Z,33.99
2018-09-19T15:21:18.391Z,34.22
2018-09-19T15:23:45.854Z,34.21
2018-09-19T15:26:14.026Z,34.23
2018-09-19T15:28:41.511Z,34.06
2018-09-19T15:31:08.978Z,33.83
2018-09-19T15:33:36.438Z,33.72
2018-09-19T15:36:03.897Z,33.55
2018-09-19T15:38:31.342Z,33.80
2018-09-19T15:40:58.831Z,33.91
2018-09-19T15:43:26.297Z,34.61
2018-09-19T15:45:53.822Z,34.89
2018-09-19T15:48:21.466Z,34.74
2018-09-19T15:50:48.957Z,34.50
2018-09-19T15:53:16.504Z,34.71
2018-09-19T15:55:43.952Z,34.64
2018-09-19T15:58:11.550Z,34.75
2018-09-19T16:00:39.018Z,35.06
2018-09-19T16:03:06.493Z,34.94
2018-09-19T16:05:33.952Z,34.68
2018-09-19T16:08:01.428Z,34.39
2018-09-19T16:10:29.015Z,34.53
2018-09-19T16:12:56.472Z,34.55
2018-09-19T16:15:24.137Z,34.47
2018-09-19T16:17:51.552Z,35.20
2018-09-19T16:20:18.992Z,35.79
2018-09-19T16:22:46.468Z,36.41
2018-09-19T16:25:14.035Z,37.06
2018-09-19T16:30:14.332Z,37.97
2018-09-19T16:32:41.826Z,37.96
2018-09-19T16:35:09.353Z,37.87
2018-09-19T16:37:36.859Z,38.11
2018-09-19T16:40:05.064Z,38.20
2018-09-19T16:42:32.553Z,40.76
2018-09-19T16:45:00.037Z,41.35
2018-09-19T16:47:27.528Z,41.26
2018-09-19T16:49:55.151Z,41.04
2018-09-19T16:52:22.602Z,40.31
2018-09-19T16:54:50.140Z,40.08
2018-09-19T16:57:17.626Z,39.83
2018-09-19T16:59:45.039Z,40.02
2018-09-19T17:02:12.500Z,40.78
2018-09-19T17:04:39.960Z,41.42
2018-09-19T17:07:07.496Z,41.35
2018-09-19T17:09:35.155Z,41.63
2018-09-19T17:12:02.701Z,42.00
2018-09-19T17:14:30.272Z,42.24
2018-09-19T17:16:57.819Z,41.58
2018-09-19T17:19:25.439Z,41.58
2018-09-19T17:21:52.971Z,41.69
2018-09-19T17:24:20.510Z,41.98
2018-09-19T17:26:48.087Z,42.38
2018-09-19T17:29:15.688Z,42.46
2018-09-19T17:31:43.237Z,42.05
2018-09-19T17:34:10.639Z,42.08
2018-09-19T17:36:38.328Z,41.86
2018-09-19T17:39:06.084Z,41.63
2018-09-19T17:41:33.548Z,41.59
2018-09-19T17:44:01.053Z,41.62
2018-09-19T17:46:28.592Z,42.10
2018-09-19T17:48:56.049Z,42.74
2018-09-19T17:51:23.556Z,43.37
2018-09-19T17:53:51.739Z,43.86
2018-09-19T17:56:19.225Z,44.28
2018-09-19T17:58:46.669Z,44.35
2018-09-19T18:01:14.120Z,45.43
2018-09-19T18:03:41.563Z,45.82
2018-09-19T18:06:09.214Z,45.83
2018-09-19T18:08:36.651Z,45.95
2018-09-19T18:11:04.103Z,46.43
2018-09-19T18:13:32.032Z,47.22
2018-09-19T18:15:59.495Z,47.46
2018-09-19T18:18:27.023Z,47.57
2018-09-19T18:20:54.576Z,48.30
2018-09-19T18:23:22.043Z,48.22
2018-09-19T18:25:49.489Z,48.24
2018-09-19T18:28:16.989Z,48.44
2018-09-19T18:30:44.473Z,48.50
2018-09-19T18:33:11.940Z,48.37
2018-09-19T18:35:40.487Z,48.31
2018-09-19T18:38:08.015Z,48.07
2018-09-19T18:40:35.474Z,48.26
2018-09-19T18:43:02.936Z,48.59
2018-09-19T18:45:30.708Z,48.71
2018-09-19T18:47:57.695Z,48.97
2018-09-19T18:50:25.170Z,48.97
2018-09-19T18:52:52.680Z,48.97
2018-09-19T18:55:19.652Z,48.88
2018-09-19T18:57:47.125Z,48.82
2018-09-19T19:00:14.604Z,48.71
2018-09-19T19:02:42.036Z,48.71
2018-09-19T19:05:09.466Z,49.03
2018-09-19T19:07:37.078Z,49.72
2018-09-19T19:10:04.547Z,50.53
2018-09-19T19:12:31.999Z,50.93
2018-09-19T19:14:59.500Z,51.15
2018-09-19T19:17:26.933Z,50.90
2018-09-19T19:19:54.430Z,50.84
2018-09-19T19:22:21.867Z,50.83
2018-09-19T19:24:49.388Z,51.62
2018-09-19T19:27:16.846Z,51.56
2018-09-19T19:29:44.247Z,51.11
2018-09-19T19:32:11.741Z,50.09
2018-09-19T19:34:39.226Z,50.03
2018-09-19T19:37:06.722Z,50.21
2018-09-19T19:39:34.179Z,50.96
2018-09-19T19:42:02.078Z,50.67
2018-09-19T19:44:30.792Z,50.32
2018-09-19T19:46:58.274Z,50.87
2018-09-19T19:49:25.691Z,50.35
2018-09-19T19:51:53.233Z,49.75
2018-09-19T19:54:20.723Z,50.20
2018-09-19T19:56:48.216Z,50.86
2018-09-19T19:59:15.814Z,51.70
2018-09-19T20:01:43.281Z,51.73
2018-09-19T20:04:10.727Z,51.86
2018-09-19T20:06:38.254Z,51.37
2018-09-19T20:09:05.729Z,52.24
2018-09-19T20:11:33.177Z,52.24
2018-09-19T20:14:00.722Z,52.83
2018-09-19T20:16:27.722Z,53.60
2018-09-19T20:18:55.784Z,53.60
2018-09-19T20:21:23.225Z,53.22
2018-09-19T20:23:50.811Z,53.10
2018-09-19T20:26:17.847Z,53.67
2018-09-19T20:28:45.325Z,54.27
2018-09-19T20:31:12.783Z,54.68
2018-09-19T20:33:40.213Z,54.37
2018-09-19T20:36:07.660Z,53.91
2018-09-19T20:38:35.113Z,54.20
2018-09-19T20:41:02.684Z,54.38
2018-09-19T20:43:30.179Z,54.89
2018-09-19T20:45:57.705Z,54.73
2018-09-19T20:48:25.194Z,54.84
2018-09-19T20:50:52.704Z,55.11
2018-09-19T20:53:20.158Z,55.62
2018-09-19T20:55:47.583Z,55.83
2018-09-19T20:58:15.287Z,56.02
2018-09-19T21:00:42.724Z,56.40
2018-09-19T21:03:10.219Z,56.67
2018-09-19T21:05:37.700Z,56.76
2018-09-19T21:08:05.164Z,56.57
2018-09-19T21:10:33.255Z,56.32
2018-09-19T21:13:00.720Z,56.93
2018-09-19T21:15:28.154Z,57.31
2018-09-19T21:17:55.692Z,58.04
2018-09-19T21:20:23.111Z,58.66
2018-09-19T21:22:50.622Z,58.99
2018-09-19T21:25:18.045Z,59.15
2018-09-19T21:27:45.483Z,59.49
2018-09-19T21:30:12.973Z,59.85
2018-09-19T21:32:40.455Z,59.95
2018-09-19T21:35:07.898Z,59.99
2018-09-19T21:37:35.432Z,60.38
2018-09-19T21:40:02.936Z,60.87
2018-09-19T21:42:30.351Z,61.09
2018-09-19T21:44:57.769Z,61.18
2018-09-19T21:47:25.189Z,61.26
2018-09-19T21:49:52.654Z,60.98
2018-09-19T21:52:20.137Z,61.53
2018-09-19T21:54:47.608Z,61.52
2018-09-19T21:57:15.457Z,61.50
2018-09-19T21:59:42.894Z,61.64
2018-09-19T22:02:10.378Z,61.82
2018-09-19T22:04:37.783Z,61.97
2018-09-19T22:07:05.253Z,62.23
2018-09-19T22:09:32.763Z,62.64
2018-09-19T22:12:00.255Z,62.83
2018-09-19T22:14:27.740Z,62.83
2018-09-19T22:16:55.517Z,62.78
2018-09-19T22:19:22.977Z,62.85
2018-09-19T22:21:50.520Z,62.91
2018-09-19T22:24:18.011Z,63.22
2018-09-19T22:26:45.426Z,63.88
2018-09-19T22:29:12.877Z,64.19
2018-09-19T22:31:40.527Z,63.76
2018-09-19T22:34:07.969Z,62.53
2018-09-19T22:36:35.420Z,61.73
2018-09-19T22:39:02.962Z,60.88
2018-09-19T22:41:31.418Z,60.16
2018-09-19T22:43:58.896Z,59.58
2018-09-19T22:46:26.551Z,59.54
2018-09-19T22:48:54.046Z,58.96
2018-09-19T22:51:21.551Z,59.56
2018-09-19T22:53:49.039Z,59.87
2018-09-19T22:56:16.490Z,59.79
2018-09-19T22:58:43.904Z,59.62
2018-09-19T23:01:11.389Z,59.70
2018-09-19T23:03:38.853Z,59.79
2018-09-19T23:06:06.259Z,60.51
2018-09-19T23:08:33.787Z,60.83
2018-09-19T23:11:01.230Z,60.96
2018-09-19T23:13:28.752Z,60.99
2018-09-19T23:15:56.229Z,61.37
2018-09-19T23:18:23.742Z,61.56
2018-09-19T23:20:51.192Z,61.61
2018-09-19T23:23:18.643Z,62.04
2018-09-19T23:25:46.041Z,62.24
2018-09-19T23:28:14.170Z,62.53
2018-09-19T23:30:41.599Z,62.79
2018-09-19T23:33:09.085Z,62.60
2018-09-19T23:35:36.511Z,63.30
2018-09-19T23:38:03.996Z,63.11
2018-09-19T23:40:31.464Z,63.82
2018-09-19T23:42:58.956Z,64.30
2018-09-19T23:45:26.449Z,64.75
2018-09-19T23:47:53.953Z,64.33
2018-09-19T23:50:21.444Z,64.33
2018-09-19T23:52:48.916Z,64.60
2018-09-19T23:55:16.825Z,64.89
2018-09-19T23:57:44.325Z,65.11
